sensor_id;sensor_type;location;lat;lon;timestamp;P1;durP1;ratioP1;P2;durP2;ratioP2
76098;SDS011;64828;49.956;8.636;2024-02-21T00:00:09;9.70;;;4.53;;
76098;SDS011;64828;49.956;8.636;2024-02-21T00:00:26;9.48;;;4.60;;
76098;SDS011;64828;49.956;8.636;2024-02-21T00:00:41;12.38;;;4.97;;
76098;SDS011;64828;49.956;8.636;2024-02-21T00:00:57;13.90;;;5.00;;
76098;SDS011;64828;49.956;8.636;2024-02-21T00:01:16;12.05;;;4.82;;
76098;SDS011;64828;49.956;8.636;2024-02-21T00:01:32;11.57;;;4.65;;
76098;SDS011;64828;49.956;8.636;2024-02-21T00:01:47;13.20;;;4.75;;
76098;SDS011;64828;49.956;8.636;2024-02-21T00:02:03;12.83;;;4.63;;
76098;SDS011;64828;49.956;8.636;2024-02-21T00:02:19;11.57;;;4.70;;
76098;SDS011;64828;49.956;8.636;2024-02-21T00:02:35;11.07;;;4.60;;
76098;SDS011;64828;49.956;8.636;2024-02-21T00:02:50;12.52;;;5.03;;
76098;SDS011;64828;49.956;8.636;2024-02-21T00:03:06;13.90;;;5.50;;
76098;SDS011;64828;49.956;8.636;2024-02-21T00:03:22;12.48;;;5.70;;
76098;SDS011;64828;49.956;8.636;2024-02-21T00:03:37;12.05;;;5.45;;
76098;SDS011;64828;49.956;8.636;2024-02-21T00:03:53;12.53;;;6.00;;
76098;SDS011;64828;49.956;8.636;2024-02-21T00:04:08;13.68;;;5.85;;
76098;SDS011;64828;49.956;8.636;2024-02-21T00:04:24;17.10;;;5.80;;
76098;SDS011;64828;49.956;8.636;2024-02-21T00:04:39;18.42;;;6.38;;
76098;SDS011;64828;49.956;8.636;2024-02-21T00:04:58;14.73;;;5.68;;
76098;SDS011;64828;49.956;8.636;2024-02-21T00:05:14;12.02;;;5.32;;
76098;SDS011;64828;49.956;8.636;2024-02-21T00:05:29;11.10;;;5.13;;
76098;SDS011;64828;49.956;8.636;2024-02-21T00:05:45;11.83;;;4.70;;
76098;SDS011;64828;49.956;8.636;2024-02-21T00:06:01;12.18;;;4.63;;
76098;SDS011;64828;49.956;8.636;2024-02-21T00:06:17;11.27;;;4.55;;
76098;SDS011;64828;49.956;8.636;2024-02-21T00:06:32;11.33;;;4.87;;
76098;SDS011;64828;49.956;8.636;2024-02-21T00:06:48;10.18;;;4.88;;
76098;SDS011;64828;49.956;8.636;2024-02-21T00:07:04;11.88;;;4.85;;
76098;SDS011;64828;49.956;8.636;2024-02-21T00:07:20;12.55;;;5.10;;
76098;SDS011;64828;49.956;8.636;2024-02-21T00:07:35;10.77;;;4.97;;
76098;SDS011;64828;49.956;8.636;2024-02-21T00:07:51;13.93;;;5.15;;
76098;SDS011;64828;49.956;8.636;2024-02-21T00:08:06;15.93;;;5.27;;
76098;SDS011;64828;49.956;8.636;2024-02-21T00:08:22;13.10;;;5.10;;
76098;SDS011;64828;49.956;8.636;2024-02-21T00:08:37;11.45;;;4.97;;
76098;SDS011;64828;49.956;8.636;2024-02-21T00:08:53;12.83;;;5.10;;
76098;SDS011;64828;49.956;8.636;2024-02-21T00:09:09;13.07;;;5.28;;
76098;SDS011;64828;49.956;8.636;2024-02-21T00:09:24;11.43;;;4.63;;
76098;SDS011;64828;49.956;8.636;2024-02-21T00:09:40;10.15;;;4.53;;
76098;SDS011;64828;49.956;8.636;2024-02-21T00:09:55;11.93;;;5.05;;
76098;SDS011;64828;49.956;8.636;2024-02-21T00:10:11;12.90;;;5.10;;
76098;SDS011;64828;49.956;8.636;2024-02-21T00:10:27;13.00;;;5.25;;
76098;SDS011;64828;49.956;8.636;2024-02-21T00:10:42;13.60;;;5.47;;
76098;SDS011;64828;49.956;8.636;2024-02-21T00:10:58;11.85;;;5.30;;
76098;SDS011;64828;49.956;8.636;2024-02-21T00:11:13;10.43;;;5.10;;
76098;SDS011;64828;49.956;8.636;2024-02-21T00:11:29;13.27;;;4.80;;
76098;SDS011;64828;49.956;8.636;2024-02-21T00:11:45;11.02;;;4.80;;
76098;SDS011;64828;49.956;8.636;2024-02-21T00:12:00;10.27;;;5.27;;
76098;SDS011;64828;49.956;8.636;2024-02-21T00:12:16;13.35;;;5.50;;
76098;SDS011;64828;49.956;8.636;2024-02-21T00:12:32;13.00;;;5.60;;
76098;SDS011;64828;49.956;8.636;2024-02-21T00:12:47;14.03;;;5.67;;
76098;SDS011;64828;49.956;8.636;2024-02-21T00:13:03;14.33;;;5.50;;
76098;SDS011;64828;49.956;8.636;2024-02-21T00:13:19;12.05;;;5.45;;
76098;SDS011;64828;49.956;8.636;2024-02-21T00:13:34;13.33;;;6.57;;
76098;SDS011;64828;49.956;8.636;2024-02-21T00:13:50;13.60;;;6.57;;
76098;SDS011;64828;49.956;8.636;2024-02-21T00:14:05;12.27;;;5.67;;
76098;SDS011;64828;49.956;8.636;2024-02-21T00:14:21;13.43;;;5.75;;
76098;SDS011;64828;49.956;8.636;2024-02-21T00:14:37;13.23;;;5.63;;
76098;SDS011;64828;49.956;8.636;2024-02-21T00:14:52;11.43;;;5.47;;
76098;SDS011;64828;49.956;8.636;2024-02-21T00:15:08;9.68;;;5.00;;
76098;SDS011;64828;49.956;8.636;2024-02-21T00:15:24;11.40;;;4.70;;
76098;SDS011;64828;49.956;8.636;2024-02-21T00:15:40;12.17;;;5.07;;
76098;SDS011;64828;49.956;8.636;2024-02-21T00:15:55;11.45;;;5.15;;
76098;SDS011;64828;49.956;8.636;2024-02-21T00:16:11;10.10;;;4.80;;
76098;SDS011;64828;49.956;8.636;2024-02-21T00:16:26;9.37;;;5.00;;
76098;SDS011;64828;49.956;8.636;2024-02-21T00:16:42;12.35;;;5.40;;
76098;SDS011;64828;49.956;8.636;2024-02-21T00:16:57;16.10;;;5.50;;
76098;SDS011;64828;49.956;8.636;2024-02-21T00:17:14;13.32;;;5.03;;
76098;SDS011;64828;49.956;8.636;2024-02-21T00:17:29;12.43;;;4.90;;
76098;SDS011;64828;49.956;8.636;2024-02-21T00:17:45;13.52;;;5.18;;
76098;SDS011;64828;49.956;8.636;2024-02-21T00:18:00;12.90;;;5.37;;
76098;SDS011;64828;49.956;8.636;2024-02-21T00:18:16;14.20;;;5.50;;
76098;SDS011;64828;49.956;8.636;2024-02-21T00:18:31;13.50;;;5.30;;
76098;SDS011;64828;49.956;8.636;2024-02-21T00:18:47;11.73;;;5.07;;
76098;SDS011;64828;49.956;8.636;2024-02-21T00:19:03;13.25;;;5.30;;
76098;SDS011;64828;49.956;8.636;2024-02-21T00:19:19;12.63;;;5.23;;
76098;SDS011;64828;49.956;8.636;2024-02-21T00:19:34;11.52;;;5.18;;
76098;SDS011;64828;49.956;8.636;2024-02-21T00:19:50;13.40;;;5.53;;
76098;SDS011;64828;49.956;8.636;2024-02-21T00:20:06;12.47;;;5.73;;
76098;SDS011;64828;49.956;8.636;2024-02-21T00:20:22;12.40;;;5.80;;
76098;SDS011;64828;49.956;8.636;2024-02-21T00:20:40;12.48;;;5.38;;
76098;SDS011;64828;49.956;8.636;2024-02-21T00:20:56;10.80;;;5.23;;
76098;SDS011;64828;49.956;8.636;2024-02-21T00:21:11;10.70;;;5.05;;
76098;SDS011;64828;49.956;8.636;2024-02-21T00:21:32;11.52;;;5.07;;
76098;SDS011;64828;49.956;8.636;2024-02-21T00:21:48;11.20;;;5.37;;
76098;SDS011;64828;49.956;8.636;2024-02-21T00:22:03;12.18;;;5.53;;
76098;SDS011;64828;49.956;8.636;2024-02-21T00:22:19;14.32;;;5.38;;
76098;SDS011;64828;49.956;8.636;2024-02-21T00:22:34;15.80;;;5.30;;
76098;SDS011;64828;49.956;8.636;2024-02-21T00:22:50;15.75;;;5.75;;
76098;SDS011;64828;49.956;8.636;2024-02-21T00:23:06;13.85;;;5.60;;
76098;SDS011;64828;49.956;8.636;2024-02-21T00:23:22;11.40;;;4.97;;
76098;SDS011;64828;49.956;8.636;2024-02-21T00:23:37;9.25;;;4.07;;
76098;SDS011;64828;49.956;8.636;2024-02-21T00:23:56;11.00;;;4.13;;
76098;SDS011;64828;49.956;8.636;2024-02-21T00:24:11;13.52;;;5.07;;
76098;SDS011;64828;49.956;8.636;2024-02-21T00:24:27;13.03;;;5.23;;
76098;SDS011;64828;49.956;8.636;2024-02-21T00:24:42;13.60;;;5.30;;
76098;SDS011;64828;49.956;8.636;2024-02-21T00:24:58;13.80;;;5.30;;
76098;SDS011;64828;49.956;8.636;2024-02-21T00:25:14;14.07;;;5.15;;
76098;SDS011;64828;49.956;8.636;2024-02-21T00:25:30;13.83;;;5.03;;
76098;SDS011;64828;49.956;8.636;2024-02-21T00:25:45;13.75;;;5.38;;
76098;SDS011;64828;49.956;8.636;2024-02-21T00:26:01;12.97;;;5.77;;
76098;SDS011;64828;49.956;8.636;2024-02-21T00:26:16;13.88;;;5.65;;
76098;SDS011;64828;49.956;8.636;2024-02-21T00:26:32;13.13;;;5.60;;
76098;SDS011;64828;49.956;8.636;2024-02-21T00:26:47;12.02;;;5.75;;
76098;SDS011;64828;49.956;8.636;2024-02-21T00:27:03;13.45;;;5.85;;
76098;SDS011;64828;49.956;8.636;2024-02-21T00:27:19;14.23;;;5.60;;
76098;SDS011;64828;49.956;8.636;2024-02-21T00:27:34;12.10;;;5.55;;
76098;SDS011;64828;49.956;8.636;2024-02-21T00:27:50;11.88;;;5.55;;
76098;SDS011;64828;49.956;8.636;2024-02-21T00:28:06;13.07;;;5.67;;
76098;SDS011;64828;49.956;8.636;2024-02-21T00:28:21;12.52;;;5.28;;
76098;SDS011;64828;49.956;8.636;2024-02-21T00:28:37;10.13;;;4.67;;
76098;SDS011;64828;49.956;8.636;2024-02-21T00:28:52;10.40;;;4.57;;
76098;SDS011;64828;49.956;8.636;2024-02-21T00:29:08;12.97;;;5.10;;
76098;SDS011;64828;49.956;8.636;2024-02-21T00:29:24;12.52;;;5.43;;
76098;SDS011;64828;49.956;8.636;2024-02-21T00:29:39;12.15;;;5.15;;
76098;SDS011;64828;49.956;8.636;2024-02-21T00:29:55;12.13;;;4.90;;
76098;SDS011;64828;49.956;8.636;2024-02-21T00:30:10;12.65;;;5.03;;
76098;SDS011;64828;49.956;8.636;2024-02-21T00:30:27;11.02;;;4.72;;
76098;SDS011;64828;49.956;8.636;2024-02-21T00:30:42;8.80;;;4.30;;
76098;SDS011;64828;49.956;8.636;2024-02-21T00:30:58;10.27;;;4.80;;
76098;SDS011;64828;49.956;8.636;2024-02-21T00:31:13;12.82;;;5.25;;
76098;SDS011;64828;49.956;8.636;2024-02-21T00:31:29;15.77;;;5.67;;
76098;SDS011;64828;49.956;8.636;2024-02-21T00:31:44;15.43;;;5.45;;
76098;SDS011;64828;49.956;8.636;2024-02-21T00:32:00;11.60;;;4.80;;
76098;SDS011;64828;49.956;8.636;2024-02-21T00:32:16;11.88;;;4.78;;
76098;SDS011;64828;49.956;8.636;2024-02-21T00:32:31;12.15;;;5.07;;
76098;SDS011;64828;49.956;8.636;2024-02-21T00:32:49;11.70;;;5.25;;
76098;SDS011;64828;49.956;8.636;2024-02-21T00:33:04;14.13;;;5.60;;
76098;SDS011;64828;49.956;8.636;2024-02-21T00:33:20;14.00;;;5.70;;
76098;SDS011;64828;49.956;8.636;2024-02-21T00:33:36;13.63;;;5.35;;
76098;SDS011;64828;49.956;8.636;2024-02-21T00:33:51;13.87;;;5.63;;
76098;SDS011;64828;49.956;8.636;2024-02-21T00:34:07;12.70;;;5.82;;
76098;SDS011;64828;49.956;8.636;2024-02-21T00:34:22;11.73;;;5.50;;
76098;SDS011;64828;49.956;8.636;2024-02-21T00:34:38;12.00;;;5.60;;
76098;SDS011;64828;49.956;8.636;2024-02-21T00:34:53;13.05;;;5.80;;
76098;SDS011;64828;49.956;8.636;2024-02-21T00:35:09;12.13;;;5.70;;
76098;SDS011;64828;49.956;8.636;2024-02-21T00:35:25;11.68;;;5.65;;
76098;SDS011;64828;49.956;8.636;2024-02-21T00:35:40;13.33;;;5.67;;
76098;SDS011;64828;49.956;8.636;2024-02-21T00:35:56;13.05;;;5.57;;
76098;SDS011;64828;49.956;8.636;2024-02-21T00:36:12;12.68;;;5.80;;
76098;SDS011;64828;49.956;8.636;2024-02-21T00:36:27;11.27;;;5.85;;
76098;SDS011;64828;49.956;8.636;2024-02-21T00:36:43;11.10;;;5.30;;
76098;SDS011;64828;49.956;8.636;2024-02-21T00:36:58;12.68;;;5.63;;
76098;SDS011;64828;49.956;8.636;2024-02-21T00:37:14;12.17;;;5.70;;
76098;SDS011;64828;49.956;8.636;2024-02-21T00:37:30;12.95;;;5.50;;
76098;SDS011;64828;49.956;8.636;2024-02-21T00:37:47;13.20;;;5.80;;
76098;SDS011;64828;49.956;8.636;2024-02-21T00:38:02;13.77;;;6.37;;
76098;SDS011;64828;49.956;8.636;2024-02-21T00:38:18;13.65;;;6.20;;
76098;SDS011;64828;49.956;8.636;2024-02-21T00:38:33;12.27;;;5.60;;
76098;SDS011;64828;49.956;8.636;2024-02-21T00:38:49;13.02;;;5.53;;
76098;SDS011;64828;49.956;8.636;2024-02-21T00:39:05;12.23;;;5.28;;
76098;SDS011;64828;49.956;8.636;2024-02-21T00:39:21;12.93;;;5.50;;
76098;SDS011;64828;49.956;8.636;2024-02-21T00:39:36;13.73;;;5.63;;
76098;SDS011;64828;49.956;8.636;2024-02-21T00:39:53;12.20;;;5.60;;
76098;SDS011;64828;49.956;8.636;2024-02-21T00:40:09;11.10;;;5.70;;
76098;SDS011;64828;49.956;8.636;2024-02-21T00:40:25;12.40;;;6.15;;
76098;SDS011;64828;49.956;8.636;2024-02-21T00:40:41;12.20;;;6.22;;
76098;SDS011;64828;49.956;8.636;2024-02-21T00:40:57;10.70;;;5.57;;
76098;SDS011;64828;49.956;8.636;2024-02-21T00:41:12;12.73;;;5.77;;
76098;SDS011;64828;49.956;8.636;2024-02-21T00:41:28;12.98;;;5.57;;
76098;SDS011;64828;49.956;8.636;2024-02-21T00:41:44;14.10;;;5.60;;
76098;SDS011;64828;49.956;8.636;2024-02-21T00:41:59;12.47;;;5.53;;
76098;SDS011;64828;49.956;8.636;2024-02-21T00:42:16;12.00;;;5.97;;
76098;SDS011;64828;49.956;8.636;2024-02-21T00:42:31;14.53;;;6.13;;
76098;SDS011;64828;49.956;8.636;2024-02-21T00:42:47;12.57;;;5.55;;
76098;SDS011;64828;49.956;8.636;2024-02-21T00:43:02;10.83;;;5.57;;
76098;SDS011;64828;49.956;8.636;2024-02-21T00:43:18;13.60;;;5.85;;
76098;SDS011;64828;49.956;8.636;2024-02-21T00:43:34;14.95;;;5.97;;
76098;SDS011;64828;49.956;8.636;2024-02-21T00:43:49;11.27;;;5.60;;
76098;SDS011;64828;49.956;8.636;2024-02-21T00:44:05;10.07;;;5.60;;
76098;SDS011;64828;49.956;8.636;2024-02-21T00:44:21;11.63;;;5.80;;
76098;SDS011;64828;49.956;8.636;2024-02-21T00:44:36;12.50;;;5.67;;
76098;SDS011;64828;49.956;8.636;2024-02-21T00:44:52;13.05;;;5.80;;
76098;SDS011;64828;49.956;8.636;2024-02-21T00:45:08;13.17;;;5.73;;
76098;SDS011;64828;49.956;8.636;2024-02-21T00:45:24;14.68;;;5.68;;
76098;SDS011;64828;49.956;8.636;2024-02-21T00:45:39;15.77;;;6.30;;
76098;SDS011;64828;49.956;8.636;2024-02-21T00:45:55;14.30;;;5.82;;
76098;SDS011;64828;49.956;8.636;2024-02-21T00:46:11;13.10;;;5.45;;
76098;SDS011;64828;49.956;8.636;2024-02-21T00:46:26;13.43;;;6.07;;
76098;SDS011;64828;49.956;8.636;2024-02-21T00:46:42;12.57;;;5.43;;
76098;SDS011;64828;49.956;8.636;2024-02-21T00:46:58;12.87;;;5.30;;
76098;SDS011;64828;49.956;8.636;2024-02-21T00:47:13;14.68;;;6.13;;
76098;SDS011;64828;49.956;8.636;2024-02-21T00:47:29;13.27;;;6.05;;
76098;SDS011;64828;49.956;8.636;2024-02-21T00:47:44;12.67;;;5.50;;
76098;SDS011;64828;49.956;8.636;2024-02-21T00:48:00;12.40;;;5.60;;
76098;SDS011;64828;49.956;8.636;2024-02-21T00:48:16;12.15;;;6.03;;
76098;SDS011;64828;49.956;8.636;2024-02-21T00:48:32;13.73;;;6.20;;
76098;SDS011;64828;49.956;8.636;2024-02-21T00:48:47;14.57;;;6.53;;
76098;SDS011;64828;49.956;8.636;2024-02-21T00:49:04;12.25;;;5.93;;
76098;SDS011;64828;49.956;8.636;2024-02-21T00:49:20;10.30;;;5.80;;
76098;SDS011;64828;49.956;8.636;2024-02-21T00:49:36;10.80;;;5.90;;
76098;SDS011;64828;49.956;8.636;2024-02-21T00:49:51;11.40;;;5.70;;
76098;SDS011;64828;49.956;8.636;2024-02-21T00:50:07;11.60;;;5.93;;
76098;SDS011;64828;49.956;8.636;2024-02-21T00:50:24;12.77;;;5.82;;
76098;SDS011;64828;49.956;8.636;2024-02-21T00:50:40;12.13;;;5.30;;
76098;SDS011;64828;49.956;8.636;2024-02-21T00:50:55;11.95;;;5.72;;
76098;SDS011;64828;49.956;8.636;2024-02-21T00:51:11;14.00;;;6.13;;
76098;SDS011;64828;49.956;8.636;2024-02-21T00:51:26;14.30;;;6.10;;
76098;SDS011;64828;49.956;8.636;2024-02-21T00:51:42;14.90;;;6.43;;
76098;SDS011;64828;49.956;8.636;2024-02-21T00:51:58;17.30;;;6.50;;
76098;SDS011;64828;49.956;8.636;2024-02-21T00:52:13;16.42;;;6.15;;
76098;SDS011;64828;49.956;8.636;2024-02-21T00:52:29;14.93;;;6.00;;
76098;SDS011;64828;49.956;8.636;2024-02-21T00:52:44;13.32;;;5.72;;
76098;SDS011;64828;49.956;8.636;2024-02-21T00:53:00;11.20;;;5.53;;
76098;SDS011;64828;49.956;8.636;2024-02-21T00:53:16;11.23;;;5.07;;
76098;SDS011;64828;49.956;8.636;2024-02-21T00:53:31;12.32;;;5.60;;
76098;SDS011;64828;49.956;8.636;2024-02-21T00:53:47;11.70;;;5.93;;
76098;SDS011;64828;49.956;8.636;2024-02-21T00:54:02;11.10;;;5.45;;
76098;SDS011;64828;49.956;8.636;2024-02-21T00:54:18;12.93;;;5.82;;
76098;SDS011;64828;49.956;8.636;2024-02-21T00:54:34;14.90;;;6.17;;
76098;SDS011;64828;49.956;8.636;2024-02-21T00:54:49;14.38;;;6.30;;
76098;SDS011;64828;49.956;8.636;2024-02-21T00:55:05;13.80;;;6.47;;
76098;SDS011;64828;49.956;8.636;2024-02-21T00:55:21;14.40;;;6.20;;
76098;SDS011;64828;49.956;8.636;2024-02-21T00:55:37;13.53;;;6.10;;
76098;SDS011;64828;49.956;8.636;2024-02-21T00:55:52;13.82;;;5.57;;
76098;SDS011;64828;49.956;8.636;2024-02-21T00:56:08;14.82;;;5.60;;
76098;SDS011;64828;49.956;8.636;2024-02-21T00:56:24;12.63;;;5.83;;
76098;SDS011;64828;49.956;8.636;2024-02-21T00:56:39;11.98;;;5.88;;
76098;SDS011;64828;49.956;8.636;2024-02-21T00:56:55;14.80;;;6.20;;
76098;SDS011;64828;49.956;8.636;2024-02-21T00:57:10;13.88;;;5.70;;
76098;SDS011;64828;49.956;8.636;2024-02-21T00:57:26;13.33;;;5.63;;
76098;SDS011;64828;49.956;8.636;2024-02-21T00:57:41;13.63;;;5.95;;
76098;SDS011;64828;49.956;8.636;2024-02-21T00:57:57;12.30;;;6.10;;
76098;SDS011;64828;49.956;8.636;2024-02-21T00:58:13;12.65;;;6.20;;
76098;SDS011;64828;49.956;8.636;2024-02-21T00:58:28;11.60;;;5.80;;
76098;SDS011;64828;49.956;8.636;2024-02-21T00:58:44;12.13;;;5.77;;
76098;SDS011;64828;49.956;8.636;2024-02-21T00:58:59;13.30;;;5.80;;
76098;SDS011;64828;49.956;8.636;2024-02-21T00:59:15;13.07;;;5.73;;
76098;SDS011;64828;49.956;8.636;2024-02-21T00:59:30;12.80;;;5.90;;
76098;SDS011;64828;49.956;8.636;2024-02-21T00:59:47;13.70;;;6.32;;
76098;SDS011;64828;49.956;8.636;2024-02-21T01:00:03;11.75;;;6.03;;
76098;SDS011;64828;49.956;8.636;2024-02-21T01:00:19;12.63;;;6.30;;
76098;SDS011;64828;49.956;8.636;2024-02-21T01:00:35;13.53;;;6.30;;
76098;SDS011;64828;49.956;8.636;2024-02-21T01:00:51;12.20;;;6.07;;
76098;SDS011;64828;49.956;8.636;2024-02-21T01:01:06;13.77;;;6.35;;
76098;SDS011;64828;49.956;8.636;2024-02-21T01:01:22;15.30;;;6.13;;
76098;SDS011;64828;49.956;8.636;2024-02-21T01:01:40;13.30;;;6.00;;
76098;SDS011;64828;49.956;8.636;2024-02-21T01:01:57;13.15;;;5.95;;
76098;SDS011;64828;49.956;8.636;2024-02-21T01:02:13;12.10;;;5.57;;
76098;SDS011;64828;49.956;8.636;2024-02-21T01:02:28;13.70;;;5.80;;
76098;SDS011;64828;49.956;8.636;2024-02-21T01:02:46;15.60;;;6.22;;
76098;SDS011;64828;49.956;8.636;2024-02-21T01:03:02;13.65;;;6.28;;
76098;SDS011;64828;49.956;8.636;2024-02-21T01:03:17;12.20;;;6.10;;
76098;SDS011;64828;49.956;8.636;2024-02-21T01:03:33;14.23;;;5.80;;
76098;SDS011;64828;49.956;8.636;2024-02-21T01:03:49;15.93;;;5.90;;
76098;SDS011;64828;49.956;8.636;2024-02-21T01:04:04;13.35;;;6.10;;
76098;SDS011;64828;49.956;8.636;2024-02-21T01:04:20;12.83;;;6.00;;
76098;SDS011;64828;49.956;8.636;2024-02-21T01:04:36;14.85;;;5.53;;
76098;SDS011;64828;49.956;8.636;2024-02-21T01:04:51;16.50;;;6.00;;
76098;SDS011;64828;49.956;8.636;2024-02-21T01:05:07;17.05;;;6.28;;
76098;SDS011;64828;49.956;8.636;2024-02-21T01:05:22;19.17;;;6.28;;
76098;SDS011;64828;49.956;8.636;2024-02-21T01:05:38;17.00;;;6.17;;
76098;SDS011;64828;49.956;8.636;2024-02-21T01:05:54;13.73;;;6.47;;
76098;SDS011;64828;49.956;8.636;2024-02-21T01:06:09;12.07;;;6.47;;
76098;SDS011;64828;49.956;8.636;2024-02-21T01:06:25;12.87;;;5.73;;
76098;SDS011;64828;49.956;8.636;2024-02-21T01:06:41;15.88;;;5.97;;
76098;SDS011;64828;49.956;8.636;2024-02-21T01:06:59;15.48;;;5.97;;
76098;SDS011;64828;49.956;8.636;2024-02-21T01:07:14;14.20;;;5.70;;
76098;SDS011;64828;49.956;8.636;2024-02-21T01:07:30;15.38;;;5.63;;
76098;SDS011;64828;49.956;8.636;2024-02-21T01:07:46;14.52;;;5.50;;
76098;SDS011;64828;49.956;8.636;2024-02-21T01:08:01;14.93;;;5.90;;
76098;SDS011;64828;49.956;8.636;2024-02-21T01:08:17;16.70;;;6.68;;
76098;SDS011;64828;49.956;8.636;2024-02-21T01:08:33;16.25;;;7.05;;
76098;SDS011;64828;49.956;8.636;2024-02-21T01:08:48;14.80;;;6.57;;
76098;SDS011;64828;49.956;8.636;2024-02-21T01:09:04;13.93;;;5.90;;
76098;SDS011;64828;49.956;8.636;2024-02-21T01:09:20;12.25;;;5.80;;
76098;SDS011;64828;49.956;8.636;2024-02-21T01:09:35;12.03;;;5.60;;
76098;SDS011;64828;49.956;8.636;2024-02-21T01:09:51;13.93;;;5.70;;
76098;SDS011;64828;49.956;8.636;2024-02-21T01:10:07;15.70;;;6.25;;
76098;SDS011;64828;49.956;8.636;2024-02-21T01:10:23;16.33;;;6.28;;
76098;SDS011;64828;49.956;8.636;2024-02-21T01:10:39;13.73;;;6.13;;
76098;SDS011;64828;49.956;8.636;2024-02-21T01:10:55;12.43;;;5.72;;
76098;SDS011;64828;49.956;8.636;2024-02-21T01:11:10;13.07;;;5.60;;
76098;SDS011;64828;49.956;8.636;2024-02-21T01:11:26;12.85;;;5.95;;
76098;SDS011;64828;49.956;8.636;2024-02-21T01:11:42;12.30;;;5.90;;
76098;SDS011;64828;49.956;8.636;2024-02-21T01:11:58;12.95;;;6.07;;
76098;SDS011;64828;49.956;8.636;2024-02-21T01:12:13;14.73;;;6.60;;
76098;SDS011;64828;49.956;8.636;2024-02-21T01:12:29;13.82;;;6.18;;
76098;SDS011;64828;49.956;8.636;2024-02-21T01:12:44;11.73;;;5.60;;
76098;SDS011;64828;49.956;8.636;2024-02-21T01:13:00;11.18;;;6.07;;
76098;SDS011;64828;49.956;8.636;2024-02-21T01:13:15;13.55;;;6.30;;
76098;SDS011;64828;49.956;8.636;2024-02-21T01:13:31;13.13;;;6.13;;
76098;SDS011;64828;49.956;8.636;2024-02-21T01:13:47;12.90;;;6.27;;
76098;SDS011;64828;49.956;8.636;2024-02-21T01:14:03;12.97;;;6.37;;
76098;SDS011;64828;49.956;8.636;2024-02-21T01:14:19;12.95;;;5.93;;
76098;SDS011;64828;49.956;8.636;2024-02-21T01:14:34;11.97;;;5.30;;
76098;SDS011;64828;49.956;8.636;2024-02-21T01:14:50;10.32;;;5.22;;
76098;SDS011;64828;49.956;8.636;2024-02-21T01:15:05;12.00;;;5.67;;
76098;SDS011;64828;49.956;8.636;2024-02-21T01:15:21;13.68;;;6.35;;
76098;SDS011;64828;49.956;8.636;2024-02-21T01:15:37;12.52;;;6.50;;
76098;SDS011;64828;49.956;8.636;2024-02-21T01:15:52;12.80;;;6.17;;
76098;SDS011;64828;49.956;8.636;2024-02-21T01:16:09;12.18;;;5.38;;
76098;SDS011;64828;49.956;8.636;2024-02-21T01:16:25;11.10;;;5.20;;
76098;SDS011;64828;49.956;8.636;2024-02-21T01:16:41;12.38;;;5.72;;
76098;SDS011;64828;49.956;8.636;2024-02-21T01:16:57;12.52;;;6.10;;
76098;SDS011;64828;49.956;8.636;2024-02-21T01:17:13;13.27;;;6.27;;
76098;SDS011;64828;49.956;8.636;2024-02-21T01:17:28;12.93;;;5.70;;
76098;SDS011;64828;49.956;8.636;2024-02-21T01:17:44;12.63;;;5.85;;
76098;SDS011;64828;49.956;8.636;2024-02-21T01:17:59;14.37;;;6.40;;
76098;SDS011;64828;49.956;8.636;2024-02-21T01:18:15;12.68;;;5.80;;
76098;SDS011;64828;49.956;8.636;2024-02-21T01:18:30;11.63;;;5.47;;
76098;SDS011;64828;49.956;8.636;2024-02-21T01:18:47;11.50;;;5.55;;
76098;SDS011;64828;49.956;8.636;2024-02-21T01:19:03;12.77;;;5.90;;
76098;SDS011;64828;49.956;8.636;2024-02-21T01:19:18;14.87;;;6.07;;
76098;SDS011;64828;49.956;8.636;2024-02-21T01:19:34;15.25;;;6.10;;
76098;SDS011;64828;49.956;8.636;2024-02-21T01:19:49;14.77;;;6.13;;
76098;SDS011;64828;49.956;8.636;2024-02-21T01:20:05;13.38;;;5.78;;
76098;SDS011;64828;49.956;8.636;2024-02-21T01:20:21;14.50;;;5.72;;
76098;SDS011;64828;49.956;8.636;2024-02-21T01:20:37;15.23;;;5.80;;
76098;SDS011;64828;49.956;8.636;2024-02-21T01:20:53;11.97;;;5.53;;
76098;SDS011;64828;49.956;8.636;2024-02-21T01:21:08;11.30;;;5.83;;
76098;SDS011;64828;49.956;8.636;2024-02-21T01:21:25;12.48;;;5.82;;
76098;SDS011;64828;49.956;8.636;2024-02-21T01:21:40;13.13;;;5.43;;
76098;SDS011;64828;49.956;8.636;2024-02-21T01:21:56;11.80;;;5.63;;
76098;SDS011;64828;49.956;8.636;2024-02-21T01:22:11;12.18;;;5.95;;
76098;SDS011;64828;49.956;8.636;2024-02-21T01:22:27;12.43;;;5.82;;
76098;SDS011;64828;49.956;8.636;2024-02-21T01:22:43;12.07;;;5.53;;
76098;SDS011;64828;49.956;8.636;2024-02-21T01:22:59;11.00;;;5.20;;
76098;SDS011;64828;49.956;8.636;2024-02-21T01:23:14;8.60;;;5.10;;
76098;SDS011;64828;49.956;8.636;2024-02-21T01:23:30;9.70;;;5.20;;
76098;SDS011;64828;49.956;8.636;2024-02-21T01:23:45;12.10;;;5.47;;
76098;SDS011;64828;49.956;8.636;2024-02-21T01:24:01;14.75;;;6.20;;
76098;SDS011;64828;49.956;8.636;2024-02-21T01:24:17;13.37;;;6.23;;
76098;SDS011;64828;49.956;8.636;2024-02-21T01:24:32;12.52;;;5.70;;
76098;SDS011;64828;49.956;8.636;2024-02-21T01:24:48;12.82;;;5.72;;
76098;SDS011;64828;49.956;8.636;2024-02-21T01:25:04;12.57;;;5.80;;
76098;SDS011;64828;49.956;8.636;2024-02-21T01:25:20;12.65;;;6.40;;
76098;SDS011;64828;49.956;8.636;2024-02-21T01:25:36;13.17;;;6.60;;
76098;SDS011;64828;49.956;8.636;2024-02-21T01:25:51;13.65;;;6.18;;
76098;SDS011;64828;49.956;8.636;2024-02-21T01:26:07;13.18;;;5.85;;
76098;SDS011;64828;49.956;8.636;2024-02-21T01:26:23;13.30;;;5.83;;
76098;SDS011;64828;49.956;8.636;2024-02-21T01:26:38;14.00;;;6.13;;
76098;SDS011;64828;49.956;8.636;2024-02-21T01:26:54;13.20;;;6.15;;
76098;SDS011;64828;49.956;8.636;2024-02-21T01:27:09;13.60;;;6.37;;
76098;SDS011;64828;49.956;8.636;2024-02-21T01:27:25;17.02;;;6.72;;
76098;SDS011;64828;49.956;8.636;2024-02-21T01:27:41;17.30;;;6.40;;
76098;SDS011;64828;49.956;8.636;2024-02-21T01:27:56;14.10;;;6.07;;
76098;SDS011;64828;49.956;8.636;2024-02-21T01:28:12;13.88;;;6.15;;
76098;SDS011;64828;49.956;8.636;2024-02-21T01:28:28;13.97;;;5.80;;
76098;SDS011;64828;49.956;8.636;2024-02-21T01:28:43;15.05;;;5.90;;
76098;SDS011;64828;49.956;8.636;2024-02-21T01:28:59;13.40;;;5.93;;
76098;SDS011;64828;49.956;8.636;2024-02-21T01:29:14;11.13;;;5.88;;
76098;SDS011;64828;49.956;8.636;2024-02-21T01:29:30;14.18;;;6.25;;
76098;SDS011;64828;49.956;8.636;2024-02-21T01:29:45;13.53;;;5.77;;
76098;SDS011;64828;49.956;8.636;2024-02-21T01:30:02;10.75;;;5.38;;
76098;SDS011;64828;49.956;8.636;2024-02-21T01:30:19;13.10;;;5.82;;
76098;SDS011;64828;49.956;8.636;2024-02-21T01:30:35;13.80;;;5.75;;
76098;SDS011;64828;49.956;8.636;2024-02-21T01:30:50;15.05;;;5.80;;
76098;SDS011;64828;49.956;8.636;2024-02-21T01:31:06;14.98;;;6.05;;
76098;SDS011;64828;49.956;8.636;2024-02-21T01:31:22;13.77;;;5.70;;
76098;SDS011;64828;49.956;8.636;2024-02-21T01:31:38;14.27;;;5.60;;
76098;SDS011;64828;49.956;8.636;2024-02-21T01:31:53;13.02;;;5.70;;
76098;SDS011;64828;49.956;8.636;2024-02-21T01:32:09;13.13;;;5.90;;
76098;SDS011;64828;49.956;8.636;2024-02-21T01:32:24;13.02;;;6.30;;
76098;SDS011;64828;49.956;8.636;2024-02-21T01:32:40;15.00;;;6.55;;
76098;SDS011;64828;49.956;8.636;2024-02-21T01:32:56;15.73;;;7.03;;
76098;SDS011;64828;49.956;8.636;2024-02-21T01:33:11;14.20;;;6.60;;
76098;SDS011;64828;49.956;8.636;2024-02-21T01:33:27;16.23;;;5.90;;
76098;SDS011;64828;49.956;8.636;2024-02-21T01:33:42;14.23;;;6.00;;